Time;durP1;ratioP1;P1;durP2;ratioP2;P2;SDS_P1;SDS_P2;PMS_P1;PMS_P2;Temp;Humidity;BMP_temperature;BMP_pressure;BME280_temperature;BME280_humidity;BME280_pressure;Samples;Min_cycle;Max_cycle;Signal;HPM_P1;HPM_P2
2022/02/02 00:01:58;;;;;;;19.73;3.55;;;5.80;99.90;;;;;;5033468;28;20321;-57
2022/02/02 00:04:29;;;;;;;20.65;4.40;;;5.80;99.90;;;;;;5033468;28;20586;-56
2022/02/02 00:07:05;;;;;;;17.48;3.95;;;5.80;99.90;;;;;;5033447;28;20193;-55
2022/02/02 00:09:33;;;;;;;19.48;4.35;;;5.80;99.90;;;;;;5033272;28;20190;-56
2022/02/02 00:12:15;;;;;;;16.83;4.13;;;5.80;99.90;;;;;;5032983;28;20226;-57
2022/02/02 00:14:55;;;;;;;22.95;5.10;;;5.80;99.90;;;;;;5033060;28;20213;-56
2022/02/02 00:17:44;;;;;;;16.33;3.83;;;5.80;99.90;;;;;;5033350;28;20190;-56
2022/02/02 00:20:21;;;;;;;18.98;4.45;;;5.80;99.90;;;;;;5033209;28;20252;-56
2022/02/02 00:22:51;;;;;;;20.65;4.35;;;5.80;99.90;;;;;;5033183;28;20634;-56
2022/02/02 00:25:21;;;;;;;25.13;6.00;;;5.80;99.90;;;;;;5036311;28;20206;-56
2022/02/02 00:27:53;;;;;;;17.02;4.75;;;5.90;99.90;;;;;;5038119;28;20190;-56
2022/02/02 00:30:24;;;;;;;16.13;3.97;;;5.90;99.90;;;;;;5037366;28;20187;-56
2022/02/02 00:33:14;;;;;;;22.40;5.32;;;5.90;99.90;;;;;;5037296;28;20326;-56
2022/02/02 00:35:45;;;;;;;15.95;4.88;;;5.90;99.90;;;;;;5037278;28;20186;-56
2022/02/02 00:38:12;;;;;;;26.02;5.53;;;6.00;99.90;;;;;;5037843;28;20197;-57
2022/02/02 00:40:39;;;;;;;16.50;4.15;;;6.00;99.90;;;;;;5038603;28;20202;-56
2022/02/02 00:43:06;;;;;;;18.40;4.00;;;6.00;99.90;;;;;;5039438;28;20660;-56
2022/02/02 00:45:43;;;;;;;15.27;4.13;;;6.00;99.90;;;;;;5040001;28;20203;-56
2022/02/02 00:48:12;;;;;;;18.02;3.17;;;6.00;99.90;;;;;;5037984;28;20639;-56
2022/02/02 00:50:39;;;;;;;15.27;4.53;;;6.00;99.90;;;;;;5037903;28;20206;-56
2022/02/02 00:53:07;;;;;;;12.45;4.60;;;6.00;99.90;;;;;;5037872;28;20309;-57
2022/02/02 00:55:34;;;;;;;17.83;4.30;;;6.00;99.90;;;;;;5037960;28;20206;-56
2022/02/02 00:58:03;;;;;;;15.75;4.45;;;6.10;99.90;;;;;;5036658;28;20721;-56
2022/02/02 01:00:31;;;;;;;23.38;4.95;;;6.10;99.90;;;;;;5037121;28;20623;-56
2022/02/02 01:02:58;;;;;;;22.50;4.15;;;6.10;99.90;;;;;;5051562;22;20237;-63
2022/02/02 01:05:26;;;;;;;14.38;4.30;;;6.10;99.90;;;;;;5036590;28;20551;-62
2022/02/02 01:10:39;;;;;;;13.23;3.88;;;6.10;99.90;;;;;;5036639;28;20552;-61
2022/02/02 01:13:25;;;;;;;14.85;3.75;;;5.80;99.90;;;;;;5038667;28;20723;-62
2022/02/02 01:18:47;;;;;;;13.95;3.53;;;5.20;99.90;;;;;;5037839;28;20547;-61
2022/02/02 01:21:29;;;;;;;10.15;3.67;;;5.00;99.90;;;;;;5037416;28;20193;-61
2022/02/02 01:29:24;;;;;;;19.10;4.65;;;4.90;99.90;;;;;;5025352;28;20209;-61
2022/02/02 01:31:51;;;;;;;34.80;5.45;;;4.90;99.90;;;;;;5036186;28;20222;-62
2022/02/02 01:34:18;;;;;;;15.88;4.38;;;5.00;99.90;;;;;;5036136;28;20222;-62
2022/02/02 01:36:47;;;;;;;16.05;3.60;;;5.00;99.90;;;;;;5047734;28;20198;-63
2022/02/02 01:39:16;;;;;;;17.67;3.90;;;5.10;99.90;;;;;;5041625;28;20590;-62
2022/02/02 01:41:44;;;;;;;12.93;5.53;;;5.20;99.90;;;;;;5042508;28;20202;-63
2022/02/02 01:44:19;;;;;;;19.58;4.50;;;5.40;99.90;;;;;;5044644;28;20217;-62
2022/02/02 01:46:48;;;;;;;12.63;3.25;;;5.40;99.90;;;;;;5044816;28;20186;-61
2022/02/02 01:54:56;;;;;;;4.72;1.20;;;4.90;99.90;;;;;;5035835;28;20305;-61
2022/02/02 01:57:46;;;;;;;6.95;1.80;;;4.60;99.90;;;;;;5038145;28;20186;-62
2022/02/02 02:00:15;;;;;;;5.30;1.45;;;4.40;99.90;;;;;;5041454;28;20676;-61
2022/02/02 02:02:42;;;;;;;6.40;1.90;;;4.30;99.90;;;;;;5042055;28;20233;-61
2022/02/02 02:05:09;;;;;;;8.30;1.38;;;4.20;99.90;;;;;;5045154;28;20604;-62
2022/02/02 02:07:38;;;;;;;6.35;1.50;;;4.10;99.90;;;;;;5039263;28;20202;-62
2022/02/02 02:10:05;;;;;;;5.45;1.65;;;4.00;99.90;;;;;;5036255;28;20208;-61
2022/02/02 02:12:46;;;;;;;2.20;1.30;;;4.00;99.90;;;;;;5035804;28;20249;-61
2022/02/02 02:15:15;;;;;;;6.53;1.75;;;3.90;99.90;;;;;;5035094;28;20206;-61
2022/02/02 02:17:42;;;;;;;7.70;2.65;;;3.90;99.90;;;;;;5035371;28;20229;-62
2022/02/02 02:20:10;;;;;;;7.35;1.95;;;3.90;99.90;;;;;;5035395;28;20223;-61
2022/02/02 02:22:41;;;;;;;10.60;2.35;;;3.90;99.90;;;;;;5034808;28;20308;-62
2022/02/02 02:25:09;;;;;;;11.30;3.33;;;4.00;99.90;;;;;;5034936;28;20240;-61
2022/02/02 02:27:37;;;;;;;9.88;2.72;;;4.00;99.90;;;;;;5035125;28;20202;-61
2022/02/02 02:30:11;;;;;;;12.43;2.60;;;4.10;99.90;;;;;;5035400;28;20213;-62
2022/02/02 02:58:00;;;;;;;17.77;2.80;;;4.50;99.90;;;;;;5070576;28;20180;-62
2022/02/02 03:00:40;;;;;;;14.18;3.33;;;4.60;99.90;;;;;;5070363;28;20574;-61
2022/02/02 03:30:50;;;;;;;12.02;3.15;;;4.80;99.90;;;;;;5069836;28;20224;-62
2022/02/02 03:50:12;;;;;;;10.60;4.30;;;4.60;99.90;;;;;;5069427;28;20180;-62
2022/02/02 03:55:32;;;;;;;14.52;2.92;;;4.60;99.90;;;;;;5052080;28;20193;-62
2022/02/02 03:58:14;;;;;;;16.30;3.38;;;4.60;99.90;;;;;;5056248;28;20196;-62
2022/02/02 04:00:56;;;;;;;12.82;4.35;;;4.50;99.90;;;;;;5055649;28;20721;-62
2022/02/02 04:03:37;;;;;;;12.98;3.42;;;4.50;99.90;;;;;;5055595;28;20236;-63
2022/02/02 04:09:15;;;;;;;12.77;2.75;;;4.40;99.90;;;;;;5091512;27;21142;-63
2022/02/02 04:11:50;;;;;;;7.93;2.47;;;4.40;99.90;;;;;;5090818;28;20200;-61
2022/02/02 04:55:57;;;;;;;11.95;3.25;;;4.50;99.90;;;;;;5027901;28;20194;-58
2022/02/02 04:58:37;;;;;;;11.18;3.08;;;4.50;99.90;;;;;;5027577;28;20183;-58
2022/02/02 05:06:36;;;;;;;13.88;3.70;;;4.50;99.90;;;;;;5054331;28;20577;-58
2022/02/02 05:09:16;;;;;;;18.50;4.70;;;4.60;99.90;;;;;;5054117;28;20206;-58
2022/02/02 05:17:28;;;;;;;14.75;3.53;;;4.70;99.90;;;;;;5041131;28;20198;-58
2022/02/02 05:52:51;;;;;;;20.30;5.22;;;4.90;99.90;;;;;;5036768;28;20198;-56
2022/02/02 05:55:18;;;;;;;20.23;5.55;;;4.90;99.90;;;;;;5037380;28;20693;-56
2022/02/02 05:57:47;;;;;;;15.27;4.70;;;5.00;99.90;;;;;;5035567;28;20198;-58
2022/02/02 06:00:16;;;;;;;27.80;4.88;;;5.00;99.90;;;;;;5036613;28;20230;-57
2022/02/02 06:02:48;;;;;;;23.60;5.45;;;5.00;99.90;;;;;;5035428;28;20206;-57
2022/02/02 06:05:15;;;;;;;17.27;4.47;;;5.10;99.90;;;;;;5034932;28;20643;-57
2022/02/02 06:07:43;;;;;;;16.75;4.68;;;5.10;99.90;;;;;;5034679;28;20230;-57
2022/02/02 06:10:15;;;;;;;12.65;3.13;;;5.10;99.90;;;;;;5034741;28;20702;-56
2022/02/02 06:12:43;;;;;;;16.67;3.65;;;5.10;99.90;;;;;;5035180;28;20198;-57
2022/02/02 06:15:15;;;;;;;20.77;3.80;;;5.20;99.90;;;;;;5035007;28;20564;-57
2022/02/02 06:17:48;;;;;;;16.30;4.03;;;5.20;99.90;;;;;;5035096;28;20190;-55
2022/02/02 06:20:19;;;;;;;21.67;4.40;;;5.20;99.90;;;;;;5034470;28;20423;-58
2022/02/02 06:22:53;;;;;;;15.20;3.70;;;5.20;99.90;;;;;;5035128;28;20190;-57
2022/02/02 06:25:24;;;;;;;20.60;3.40;;;5.30;99.90;;;;;;5034917;28;20190;-57
2022/02/02 06:27:59;;;;;;;14.43;3.85;;;5.20;99.90;;;;;;5034553;28;20686;-58
2022/02/02 06:30:30;;;;;;;22.00;4.72;;;5.30;99.90;;;;;;5034307;28;20226;-58
2022/02/02 06:33:05;;;;;;;17.58;4.40;;;5.30;99.90;;;;;;5034542;28;20187;-57
2022/02/02 06:35:33;;;;;;;21.40;4.47;;;5.30;99.90;;;;;;5035564;28;20189;-57
2022/02/02 06:38:00;;;;;;;20.77;4.30;;;5.30;99.90;;;;;;5034593;28;20203;-56
2022/02/02 06:40:29;;;;;;;16.65;3.30;;;5.30;99.90;;;;;;5034766;28;20626;-56
2022/02/02 06:42:57;;;;;;;17.92;3.85;;;5.30;99.90;;;;;;5034154;28;20674;-57
2022/02/02 06:45:25;;;;;;;15.35;4.90;;;5.30;99.90;;;;;;5034351;28;20206;-58
2022/02/02 06:47:54;;;;;;;16.70;4.43;;;5.20;99.90;;;;;;5034266;28;20288;-57
2022/02/02 06:50:26;;;;;;;10.55;3.88;;;5.30;99.90;;;;;;5033895;28;20223;-56
2022/02/02 06:53:11;;;;;;;20.23;4.80;;;5.30;99.90;;;;;;5034491;28;20209;-58
2022/02/02 06:55:48;;;;;;;15.98;3.60;;;5.30;99.90;;;;;;5033932;28;20240;-57
2022/02/02 06:58:30;;;;;;;24.60;5.55;;;5.30;99.90;;;;;;5033829;28;20190;-57
2022/02/02 07:01:12;;;;;;;16.63;4.90;;;5.30;99.90;;;;;;5033792;28;20253;-58
2022/02/02 07:04:00;;;;;;;16.77;4.13;;;5.30;99.90;;;;;;5034477;28;20191;-58
2022/02/02 07:06:43;;;;;;;11.48;3.40;;;5.30;99.90;;;;;;5034149;28;20645;-57
2022/02/02 07:09:24;;;;;;;23.35;5.07;;;5.40;99.90;;;;;;5034935;28;20206;-57
2022/02/02 07:12:03;;;;;;;11.70;3.83;;;5.30;99.90;;;;;;5034849;28;20273;-58
2022/02/02 07:14:44;;;;;;;16.15;4.35;;;5.30;99.90;;;;;;5035511;28;20193;-57
2022/02/02 07:17:30;;;;;;;17.83;4.15;;;5.30;99.90;;;;;;5034659;28;20221;-57
2022/02/02 07:20:07;;;;;;;15.27;3.67;;;5.30;99.90;;;;;;5033779;28;20225;-58
2022/02/02 07:28:10;;;;;;;17.95;5.45;;;5.20;99.90;;;;;;5032903;28;20585;-57
2022/02/02 07:30:53;;;;;;;10.80;3.00;;;5.20;99.90;;;;;;5035202;28;20611;-58
2022/02/02 07:33:28;;;;;;;20.90;3.28;;;5.20;99.90;;;;;;5035239;28;20603;-58
2022/02/02 07:36:05;;;;;;;18.80;4.28;;;5.30;99.90;;;;;;5033442;28;20281;-58
2022/02/02 07:38:43;;;;;;;12.70;3.65;;;5.30;99.90;;;;;;5033491;28;20187;-58
2022/02/02 07:41:24;;;;;;;18.40;3.92;;;5.30;99.90;;;;;;5033406;28;20229;-58
2022/02/02 07:43:57;;;;;;;13.73;4.88;;;5.40;99.90;;;;;;5033415;28;20214;-56
2022/02/02 07:46:27;;;;;;;14.95;3.67;;;5.40;99.90;;;;;;5033099;28;20644;-58
2022/02/02 07:48:54;;;;;;;10.82;3.72;;;5.50;99.90;;;;;;5032802;28;20261;-58
2022/02/02 07:51:23;;;;;;;15.68;3.50;;;5.40;99.90;;;;;;5033475;28;20248;-57
2022/02/02 07:53:58;;;;;;;16.65;4.05;;;5.40;99.90;;;;;;5033394;28;20209;-57
2022/02/02 07:56:31;;;;;;;9.27;3.00;;;5.40;99.90;;;;;;5033655;28;20229;-57
2022/02/02 07:59:13;;;;;;;14.18;3.78;;;5.40;99.90;;;;;;5034318;28;20182;-58
2022/02/02 08:01:44;;;;;;;13.60;3.20;;;5.30;99.90;;;;;;5033112;28;20218;-57
2022/02/02 08:04:12;;;;;;;17.80;3.70;;;5.40;99.90;;;;;;5033032;28;20230;-57
2022/02/02 08:06:41;;;;;;;12.43;3.75;;;5.40;99.90;;;;;;5032804;28;20202;-57
2022/02/02 08:09:16;;;;;;;15.35;3.60;;;5.40;99.90;;;;;;5032827;28;20222;-57
2022/02/02 08:11:43;;;;;;;10.48;3.08;;;5.40;99.90;;;;;;5033722;28;20752;-56
2022/02/02 08:14:10;;;;;;;20.77;4.05;;;5.40;99.90;;;;;;5033369;28;20207;-58
2022/02/02 08:16:38;;;;;;;11.15;3.25;;;5.50;99.90;;;;;;5033365;28;20202;-59
2022/02/02 08:19:08;;;;;;;8.65;3.30;;;5.40;99.90;;;;;;5032944;28;20202;-58
2022/02/02 08:21:35;;;;;;;14.80;4.60;;;5.50;99.90;;;;;;5033284;28;20252;-58
2022/02/02 08:24:08;;;;;;;17.35;3.60;;;5.50;99.90;;;;;;5033373;28;20209;-58
2022/02/02 08:26:39;;;;;;;6.50;2.60;;;5.60;99.90;;;;;;5033142;28;20202;-58
2022/02/02 08:29:09;;;;;;;16.60;4.13;;;5.50;99.90;;;;;;5033534;28;20210;-57
2022/02/02 08:31:38;;;;;;;13.38;3.78;;;5.60;99.90;;;;;;5033629;28;20222;-57
2022/02/02 08:34:10;;;;;;;24.20;3.80;;;5.60;99.90;;;;;;5033041;28;20661;-58
2022/02/02 08:36:38;;;;;;;25.00;4.20;;;5.70;99.90;;;;;;5033370;28;20214;-59
2022/02/02 08:39:16;;;;;;;17.35;4.30;;;5.70;99.90;;;;;;5034833;28;20209;-57
2022/02/02 08:41:49;;;;;;;11.65;3.20;;;5.80;99.90;;;;;;5034569;28;20311;-59
2022/02/02 08:44:20;;;;;;;14.63;4.22;;;5.80;99.90;;;;;;5034330;28;20187;-57
2022/02/02 08:46:57;;;;;;;10.70;2.92;;;5.90;99.90;;;;;;5033043;28;20187;-57
2022/02/02 08:49:25;;;;;;;15.68;4.38;;;5.90;99.90;;;;;;5032747;28;20214;-56
2022/02/02 08:51:52;;;;;;;12.45;3.85;;;5.90;99.90;;;;;;5033005;28;20289;-57
2022/02/02 08:54:28;;;;;;;6.82;2.95;;;5.90;99.90;;;;;;5034078;28;20202;-57
2022/02/02 08:57:24;;;;;;;10.20;2.92;;;6.00;99.90;;;;;;5037066;28;20252;-56
2022/02/02 08:59:57;;;;;;;11.25;2.85;;;6.00;99.90;;;;;;5037830;28;20561;-57
2022/02/02 09:02:31;;;;;;;13.23;2.70;;;6.00;99.90;;;;;;5038792;28;20706;-58
2022/02/02 09:07:43;;;;;;;13.32;3.05;;;6.10;99.90;;;;;;5037662;28;20249;-57
2022/02/02 09:10:13;;;;;;;9.75;3.60;;;6.10;99.90;;;;;;5036811;28;20280;-58
2022/02/02 09:23:45;;;;;;;10.23;2.83;;;6.20;99.90;;;;;;5034624;28;20253;-57
2022/02/02 09:32:00;;;;;;;10.43;3.13;;;6.30;99.90;;;;;;5036366;28;20228;-57
2022/02/02 09:34:27;;;;;;;13.40;3.53;;;6.30;99.90;;;;;;5036677;28;20257;-57
2022/02/02 09:36:54;;;;;;;9.13;2.53;;;6.30;99.90;;;;;;5036267;28;20199;-58
2022/02/02 09:39:29;;;;;;;12.02;3.05;;;6.30;99.90;;;;;;5035504;28;20198;-57
2022/02/02 09:42:03;;;;;;;14.45;4.20;;;6.30;99.90;;;;;;5035693;28;20228;-59
2022/02/02 09:44:36;;;;;;;10.50;2.72;;;6.40;99.90;;;;;;5036799;28;20197;-57
2022/02/02 09:47:09;;;;;;;8.93;3.08;;;6.40;99.90;;;;;;5035905;28;20241;-59
2022/02/02 09:49:46;;;;;;;12.43;3.85;;;6.40;99.40;;;;;;5035733;28;20210;-56
2022/02/02 09:52:16;;;;;;;11.00;2.75;;;6.40;99.70;;;;;;5035390;28;20197;-57
2022/02/02 09:54:55;;;;;;;9.25;3.15;;;6.50;99.70;;;;;;5036147;28;20202;-58
2022/02/02 09:57:44;;;;;;;14.70;3.45;;;6.50;99.60;;;;;;5040862;28;20241;-58
2022/02/02 10:00:41;;;;;;;9.85;3.42;;;6.50;99.00;;;;;;5035019;28;20214;-57
2022/02/02 10:03:36;;;;;;;4.68;2.25;;;6.50;98.70;;;;;;5035721;28;20605;-57
2022/02/02 10:06:09;;;;;;;11.80;2.80;;;6.60;98.70;;;;;;5035659;28;20183;-58
2022/02/02 10:08:56;;;;;;;13.25;3.15;;;6.70;97.90;;;;;;5035405;28;20671;-58
2022/02/02 10:14:33;;;;;;;7.53;2.50;;;6.90;96.50;;;;;;5035724;28;20264;-57
2022/02/02 10:17:04;;;;;;;16.80;3.75;;;6.90;96.50;;;;;;5035761;28;20229;-58
2022/02/02 10:19:32;;;;;;;9.05;3.08;;;6.90;96.80;;;;;;5035066;28;20649;-57
2022/02/02 10:21:59;;;;;;;11.80;4.18;;;6.90;96.70;;;;;;5035300;28;20230;-58
2022/02/02 10:24:44;;;;;;;15.90;3.55;;;6.90;96.50;;;;;;5035337;28;20210;-58
2022/02/02 10:27:23;;;;;;;13.18;3.17;;;6.90;96.80;;;;;;5035756;28;20195;-57
2022/02/02 10:29:50;;;;;;;12.10;3.05;;;7.00;96.30;;;;;;5034806;28;20206;-56
2022/02/02 10:32:40;;;;;;;12.38;2.50;;;7.00;95.70;;;;;;5034870;28;20627;-58
2022/02/02 10:35:10;;;;;;;10.07;3.13;;;7.10;95.50;;;;;;5034890;28;20183;-57
2022/02/02 10:37:40;;;;;;;9.05;3.20;;;7.10;95.20;;;;;;5034692;28;20301;-57
2022/02/02 10:40:09;;;;;;;7.22;2.17;;;7.10;95.40;;;;;;5034364;28;20214;-57
2022/02/02 10:42:42;;;;;;;10.95;3.33;;;7.20;94.00;;;;;;5034709;28;20208;-56
2022/02/02 10:45:21;;;;;;;8.70;3.30;;;7.20;93.30;;;;;;5035124;28;20226;-57
2022/02/02 10:47:57;;;;;;;14.65;3.47;;;7.20;93.50;;;;;;5034681;28;20244;-56
2022/02/02 10:50:31;;;;;;;13.60;2.97;;;7.20;93.10;;;;;;5034743;28;20603;-56
2022/02/02 10:53:29;;;;;;;8.40;2.50;;;7.10;93.00;;;;;;5034732;28;20186;-57
2022/02/02 10:56:18;;;;;;;9.27;2.40;;;7.10;93.20;;;;;;5034337;28;20253;-56
2022/02/02 11:01:35;;;;;;;9.27;2.13;;;7.20;93.40;;;;;;5034086;28;20214;-55
2022/02/02 11:06:50;;;;;;;10.68;3.80;;;7.10;92.90;;;;;;5033655;28;20213;-56
2022/02/02 11:09:19;;;;;;;8.73;2.10;;;7.00;93.50;;;;;;5033707;28;20230;-57
2022/02/02 11:11:48;;;;;;;11.65;3.10;;;6.90;93.90;;;;;;5033772;28;20292;-57
2022/02/02 11:14:35;;;;;;;9.10;2.80;;;6.90;94.20;;;;;;5033493;28;20205;-56
2022/02/02 11:17:09;;;;;;;14.50;3.28;;;6.80;94.10;;;;;;5033161;28;20557;-57
2022/02/02 11:19:39;;;;;;;11.38;3.25;;;6.80;93.80;;;;;;5033397;28;20620;-56
2022/02/02 11:22:30;;;;;;;12.40;2.90;;;6.70;93.80;;;;;;5032938;28;20260;-55
2022/02/02 11:24:59;;;;;;;9.95;2.45;;;6.80;94.20;;;;;;5033343;28;20273;-58
2022/02/02 11:27:37;;;;;;;13.32;3.83;;;6.80;94.40;;;;;;5033580;28;20218;-56
2022/02/02 11:30:07;;;;;;;7.78;2.83;;;6.90;94.50;;;;;;5039308;28;20249;-58
2022/02/02 11:32:45;;;;;;;15.57;2.90;;;7.00;94.40;;;;;;5033028;28;20210;-57
2022/02/02 11:35:38;;;;;;;6.22;1.90;;;7.10;94.10;;;;;;5033552;28;20190;-57
2022/02/02 11:38:16;;;;;;;7.18;2.30;;;7.20;92.90;;;;;;5033434;28;20219;-55
2022/02/02 11:41:23;;;;;;;8.27;2.65;;;7.20;92.30;;;;;;5033147;28;20222;-56
2022/02/02 11:43:59;;;;;;;13.13;3.28;;;7.30;91.70;;;;;;5033678;28;20237;-55
2022/02/02 11:46:54;;;;;;;9.35;2.75;;;7.50;91.10;;;;;;5033850;28;20190;-56
2022/02/02 11:49:43;;;;;;;8.27;2.22;;;7.50;90.60;;;;;;5033697;28;20222;-56
2022/02/02 11:52:33;;;;;;;8.60;2.25;;;7.50;90.70;;;;;;5033775;28;20300;-56
2022/02/02 11:55:00;;;;;;;11.23;2.85;;;7.60;90.60;;;;;;5033446;28;20190;-58
2022/02/02 11:57:34;;;;;;;6.57;2.28;;;7.50;89.70;;;;;;5034006;28;20238;-56
2022/02/02 12:00:16;;;;;;;10.77;2.70;;;7.50;89.10;;;;;;5033181;28;20313;-58
2022/02/02 12:03:12;;;;;;;9.85;2.88;;;7.50;89.50;;;;;;5032908;28;20213;-57
2022/02/02 12:08:54;;;;;;;7.18;2.42;;;7.60;89.60;;;;;;5030638;28;20244;-57
2022/02/02 12:56:57;;;;;;;7.90;1.63;;;6.40;95.70;;;;;;5032095;28;20195;-56
2022/02/02 12:59:42;;;;;;;5.68;1.23;;;6.50;94.20;;;;;;5036014;28;20199;-56
2022/02/02 13:02:12;;;;;;;5.60;2.15;;;6.60;93.40;;;;;;5036098;28;20191;-57
2022/02/02 13:04:41;;;;;;;6.72;1.75;;;6.70;93.00;;;;;;5036021;28;20666;-56
2022/02/02 13:07:12;;;;;;;4.28;1.50;;;6.70;93.20;;;;;;5036708;28;20202;-58
2022/02/02 13:09:41;;;;;;;3.15;1.20;;;6.50;93.40;;;;;;5035954;28;20207;-57
2022/02/02 13:12:34;;;;;;;3.83;1.40;;;6.40;93.50;;;;;;5035860;28;20300;-57
2022/02/02 13:18:00;;;;;;;2.90;1.63;;;6.30;93.50;;;;;;5036138;28;20182;-57
2022/02/02 13:20:38;;;;;;;4.85;2.20;;;6.30;93.80;;;;;;5035698;28;20610;-58
2022/02/02 13:23:12;;;;;;;8.30;1.70;;;6.30;93.60;;;;;;5036238;28;20198;-57
2022/02/02 13:25:41;;;;;;;3.42;1.45;;;6.40;92.90;;;;;;5036649;28;20186;-58
2022/02/02 13:28:10;;;;;;;7.28;1.90;;;6.50;92.10;;;;;;5035882;28;20218;-57
2022/02/02 13:30:45;;;;;;;5.20;1.63;;;6.60;91.40;;;;;;5035336;28;20236;-57
2022/02/02 13:33:18;;;;;;;12.70;2.88;;;6.70;90.90;;;;;;5035903;28;20274;-56
2022/02/02 13:35:57;;;;;;;4.70;1.83;;;6.70;91.00;;;;;;5035214;28;20651;-56
2022/02/02 13:38:45;;;;;;;5.38;2.70;;;6.80;90.20;;;;;;5035489;28;20186;-57
2022/02/02 13:44:23;;;;;;;5.28;1.77;;;6.90;85.20;;;;;;5035876;28;20539;-57
2022/02/02 13:47:20;;;;;;;7.00;2.10;;;6.90;80.30;;;;;;5035513;28;20294;-57
2022/02/02 13:50:00;;;;;;;2.40;1.35;;;6.90;79.10;;;;;;5035172;28;20225;-54
2022/02/02 13:52:48;;;;;;;3.17;1.50;;;7.00;78.10;;;;;;5035416;28;20627;-57
2022/02/02 13:55:31;;;;;;;9.73;2.03;;;7.00;78.40;;;;;;5035721;28;20186;-57
2022/02/02 13:58:28;;;;;;;7.03;2.63;;;7.00;79.10;;;;;;5035513;28;20245;-56
2022/02/02 14:01:04;;;;;;;2.95;1.65;;;7.00;79.90;;;;;;5037444;28;20222;-56
2022/02/02 14:04:03;;;;;;;5.55;2.40;;;7.00;79.60;;;;;;5038082;28;20190;-56
2022/02/02 14:06:45;;;;;;;3.80;1.83;;;7.00;80.10;;;;;;5038729;28;20238;-57
2022/02/02 14:09:17;;;;;;;3.60;1.40;;;7.00;80.10;;;;;;5037057;28;20189;-55
2022/02/02 14:31:22;;;;;;;1.90;1.20;;;6.50;81.60;;;;;;5039314;28;20229;-56
2022/02/02 14:33:51;;;;;;;5.95;1.83;;;6.50;81.70;;;;;;5038396;28;20209;-57
2022/02/02 14:36:23;;;;;;;4.60;2.25;;;6.50;81.70;;;;;;5038538;28;20577;-57
2022/02/02 14:38:55;;;;;;;10.93;3.13;;;6.50;82.10;;;;;;5036319;28;20187;-57
2022/02/02 14:41:34;;;;;;;3.90;1.75;;;6.50;81.50;;;;;;5034711;28;20225;-56
2022/02/02 14:44:06;;;;;;;7.65;2.33;;;6.50;81.40;;;;;;5034220;28;20638;-56
2022/02/02 14:46:38;;;;;;;4.78;1.67;;;6.50;81.60;;;;;;5034341;28;20244;-56
2022/02/02 14:49:09;;;;;;;5.47;1.90;;;6.60;81.50;;;;;;5035143;28;20285;-57
2022/02/02 14:51:47;;;;;;;2.92;1.92;;;6.60;81.30;;;;;;5033466;28;20309;-57
2022/02/02 15:23:47;;;;;;;5.47;2.20;;;6.30;84.90;;;;;;5033825;28;20274;-55
2022/02/02 15:27:58;;;;;;;5.78;2.10;;;6.10;87.20;;;;;;5033276;28;20286;-55
2022/02/02 15:30:32;;;;;;;10.95;2.80;;;6.00;88.00;;;;;;5033246;28;20226;-56
2022/02/02 15:33:06;;;;;;;9.20;3.05;;;6.00;88.50;;;;;;5033611;28;20214;-59
2022/02/02 15:35:36;;;;;;;9.05;2.78;;;5.90;89.40;;;;;;5034540;28;20697;-57
2022/02/02 15:38:06;;;;;;;7.75;2.50;;;5.90;90.00;;;;;;5033414;28;20617;-57
2022/02/02 15:40:41;;;;;;;13.60;2.78;;;5.90;90.30;;;;;;5033123;28;20222;-56
2022/02/02 15:43:21;;;;;;;9.13;2.40;;;5.90;90.60;;;;;;5033300;28;20193;-56
2022/02/02 16:00:04;;;;;;;7.70;3.20;;;5.80;91.90;;;;;;5033351;28;20597;-56
2022/02/02 16:02:42;;;;;;;7.93;3.35;;;5.80;92.10;;;;;;5032755;28;20597;-56
2022/02/02 16:05:15;;;;;;;9.55;3.38;;;5.70;92.30;;;;;;5033324;28;20218;-58
2022/02/02 16:07:42;;;;;;;9.80;3.08;;;5.70;92.60;;;;;;5033081;28;20631;-56
2022/02/02 16:10:16;;;;;;;12.98;3.80;;;5.70;93.00;;;;;;5032834;28;20226;-56
2022/02/02 16:12:48;;;;;;;13.52;3.08;;;5.70;93.30;;;;;;5033685;28;20280;-58
2022/02/02 16:15:29;;;;;;;10.95;3.75;;;5.60;93.50;;;;;;5033309;28;20222;-58
2022/02/02 16:18:30;;;;;;;8.48;2.97;;;5.60;93.70;;;;;;5033034;28;20206;-58
2022/02/02 16:32:12;;;;;;;11.10;4.05;;;5.30;95.30;;;;;;5032837;28;20760;-56
2022/02/02 16:34:57;;;;;;;13.40;3.53;;;5.20;95.90;;;;;;5032580;28;20276;-54
2022/02/02 16:37:26;;;;;;;11.05;3.92;;;5.10;95.90;;;;;;5032785;28;20182;-57
2022/02/02 16:39:58;;;;;;;16.65;4.75;;;5.10;96.20;;;;;;5032821;28;20256;-57
2022/02/02 16:45:13;;;;;;;10.25;3.90;;;5.00;96.80;;;;;;5033026;28;20371;-57
2022/02/02 16:47:40;;;;;;;10.07;3.45;;;5.00;97.00;;;;;;5033930;28;20670;-57
2022/02/02 16:50:13;;;;;;;5.85;2.80;;;4.90;97.20;;;;;;5032675;28;20218;-59
2022/02/02 16:52:40;;;;;;;13.80;3.55;;;4.90;97.50;;;;;;5032517;28;20612;-59
2022/02/02 16:55:14;;;;;;;14.88;3.33;;;4.80;97.70;;;;;;5032372;28;20702;-59
2022/02/02 16:57:51;;;;;;;8.98;3.50;;;4.80;98.20;;;;;;5032725;28;20187;-59
2022/02/02 17:30:35;;;;;;;16.73;4.40;;;4.20;99.90;;;;;;5035456;28;20265;-58
2022/02/02 17:33:08;;;;;;;8.77;3.83;;;4.20;99.90;;;;;;5037039;28;20186;-59
2022/02/02 17:35:46;;;;;;;14.23;4.57;;;4.20;99.90;;;;;;5036202;28;20183;-57
2022/02/02 17:38:19;;;;;;;8.75;3.33;;;4.20;99.90;;;;;;5035884;28;20624;-59
2022/02/02 18:19:24;;;;;;;17.23;4.70;;;4.20;99.90;;;;;;5022446;28;20198;-58
2022/02/02 18:21:52;;;;;;;13.63;4.63;;;4.20;99.90;;;;;;5034650;28;20253;-56
2022/02/02 18:24:24;;;;;;;15.90;5.53;;;4.20;99.90;;;;;;5035439;28;20241;-58
2022/02/02 18:26:58;;;;;;;12.98;3.95;;;4.20;99.90;;;;;;5035419;28;20186;-58
2022/02/02 18:29:32;;;;;;;13.32;3.95;;;4.10;99.90;;;;;;5034914;28;20187;-58
2022/02/02 18:32:16;;;;;;;16.95;3.67;;;4.10;99.90;;;;;;5035098;28;20230;-58
2022/02/02 18:34:48;;;;;;;15.52;4.00;;;4.10;99.90;;;;;;5035797;28;20209;-58
2022/02/02 18:43:21;;;;;;;11.40;4.55;;;4.00;99.90;;;;;;5034593;28;20281;-58
2022/02/02 18:48:39;;;;;;;7.40;4.05;;;4.00;99.90;;;;;;5034861;28;20181;-57
2022/02/02 18:51:32;;;;;;;10.15;4.00;;;3.90;99.90;;;;;;5035247;28;20258;-57
2022/02/02 18:54:13;;;;;;;16.00;5.70;;;3.90;99.90;;;;;;5034379;28;20187;-57
2022/02/02 18:56:53;;;;;;;16.70;4.53;;;3.80;99.90;;;;;;5034445;28;20274;-58
2022/02/02 18:59:37;;;;;;;13.45;4.70;;;3.80;99.90;;;;;;5034845;28;20186;-58
2022/02/02 19:02:12;;;;;;;16.00;4.38;;;3.80;99.90;;;;;;5034224;28;20250;-57
2022/02/02 19:05:00;;;;;;;10.48;4.65;;;3.90;99.90;;;;;;5034210;28;20281;-57
2022/02/02 19:38:17;;;;;;;13.05;3.70;;;3.80;99.90;;;;;;5033003;28;20185;-59
2022/02/02 19:52:19;;;;;;;16.55;4.43;;;3.80;99.90;;;;;;5033323;28;20248;-59
2022/02/02 20:01:41;;;;;;;6.82;3.28;;;3.60;99.90;;;;;;5033115;28;20544;-57
2022/02/02 20:03:26;;;;;;;14.30;3.88;;;3.60;99.90;;;;;;5033315;28;20209;-55
2022/02/02 20:06:04;;;;;;;12.02;3.42;;;3.50;99.90;;;;;;5032825;28;20250;-56
2022/02/02 20:08:44;;;;;;;9.27;3.53;;;3.50;99.90;;;;;;5033147;28;20186;-58
2022/02/02 20:11:19;;;;;;;14.50;3.83;;;3.60;99.90;;;;;;5032534;28;20234;-59
2022/02/02 20:13:46;;;;;;;14.60;3.60;;;3.60;99.90;;;;;;5032888;28;20186;-60
2022/02/02 20:16:15;;;;;;;11.32;3.33;;;3.60;99.90;;;;;;5033932;28;20210;-57
2022/02/02 20:18:44;;;;;;;11.10;3.72;;;3.60;99.90;;;;;;5033432;28;20210;-58
2022/02/02 20:21:13;;;;;;;9.60;3.60;;;3.60;99.90;;;;;;5032548;28;20230;-57
2022/02/02 20:23:44;;;;;;;11.98;4.00;;;3.60;99.90;;;;;;5032884;28;20245;-56
2022/02/02 20:26:15;;;;;;;14.15;3.65;;;3.50;99.90;;;;;;5032988;28;20186;-56
2022/02/02 20:28:42;;;;;;;11.23;4.03;;;3.50;99.90;;;;;;5033203;28;20512;-58
2022/02/02 20:31:09;;;;;;;14.63;3.65;;;3.50;99.90;;;;;;5032924;28;20587;-57
2022/02/02 20:33:38;;;;;;;10.98;3.70;;;3.40;99.90;;;;;;5033448;28;20210;-58
2022/02/02 20:36:06;;;;;;;14.45;4.53;;;3.40;99.90;;;;;;5034665;28;20213;-57
2022/02/02 20:38:33;;;;;;;8.00;3.38;;;3.40;99.90;;;;;;5033927;28;20202;-58
2022/02/02 20:41:01;;;;;;;18.33;4.45;;;3.30;99.90;;;;;;5033714;28;20233;-56
2022/02/02 20:43:32;;;;;;;11.93;4.45;;;3.30;99.90;;;;;;5033795;28;20203;-57
2022/02/02 20:46:28;;;;;;;16.00;4.10;;;3.20;99.90;;;;;;5033949;28;20186;-56
2022/02/02 21:05:39;;;;;;;11.85;4.60;;;3.20;99.90;;;;;;5036677;28;20183;-59
2022/02/02 21:10:50;;;;;;;10.55;4.50;;;3.10;99.90;;;;;;5036860;28;20583;-58
2022/02/02 21:16:03;;;;;;;17.27;4.22;;;3.00;99.90;;;;;;5036863;28;20229;-58
2022/02/02 21:18:34;;;;;;;14.70;3.65;;;2.90;99.90;;;;;;5037489;28;20209;-57
2022/02/02 21:21:16;;;;;;;12.50;4.15;;;2.90;99.90;;;;;;5037707;28;20622;-59
2022/02/02 21:24:16;;;;;;;12.55;4.78;;;2.80;99.90;;;;;;5036591;28;20205;-57
2022/02/02 21:26:49;;;;;;;15.73;4.18;;;2.80;99.90;;;;;;5035695;28;20733;-56
2022/02/02 21:29:16;;;;;;;17.52;4.32;;;2.80;99.90;;;;;;5036062;28;20225;-56
2022/02/02 21:31:43;;;;;;;21.15;4.63;;;2.70;99.90;;;;;;5035660;28;20226;-57
2022/02/02 21:34:11;;;;;;;9.55;3.63;;;2.80;99.90;;;;;;5035705;28;20214;-58
2022/02/02 21:36:39;;;;;;;8.15;3.90;;;2.80;99.90;;;;;;5035862;28;20202;-58
2022/02/02 21:39:08;;;;;;;14.82;4.72;;;2.80;99.90;;;;;;5036015;28;20591;-58
2022/02/02 21:41:39;;;;;;;12.80;4.55;;;2.80;99.90;;;;;;5035438;28;20218;-58